createdAt,value
2018-06-19T00:01:44.210Z,6.50
2018-06-19T00:04:12.387Z,5.77
2018-06-19T00:06:40.787Z,6.37
2018-06-19T00:09:09.658Z,5.83
2018-06-19T00:11:38.233Z,5.87
2018-06-19T00:14:06.818Z,6.00
2018-06-19T00:16:35.401Z,6.00
2018-06-19T00:19:03.881Z,6.13
2018-06-19T00:21:34.312Z,6.20
2018-06-19T00:24:02.788Z,6.50
2018-06-19T00:26:31.162Z,6.47
2018-06-19T00:28:59.852Z,6.67
2018-06-19T00:31:28.539Z,6.47
2018-06-19T00:33:57.019Z,6.40
2018-06-19T00:36:25.497Z,6.43
2018-06-19T00:38:53.731Z,6.70
2018-06-19T00:41:22.152Z,6.00
2018-06-19T00:43:50.635Z,6.33
2018-06-19T00:46:19.832Z,6.53
2018-06-19T00:48:48.413Z,6.37
2018-06-19T00:51:16.895Z,6.57
2018-06-19T00:53:45.477Z,6.10
2018-06-19T00:56:19.486Z,6.73
2018-06-19T00:58:47.968Z,6.70
2018-06-19T01:01:16.341Z,7.17
2018-06-19T01:03:44.927Z,6.90
2018-06-19T01:06:13.508Z,7.40
2018-06-19T01:08:41.989Z,8.00
2018-06-19T01:11:10.403Z,7.03
2018-06-19T01:13:38.949Z,7.27
2018-06-19T01:16:07.580Z,7.53
2018-06-19T01:18:36.014Z,7.77
2018-06-19T01:21:04.597Z,7.57
2018-06-19T01:23:33.216Z,7.20
2018-06-19T01:26:01.744Z,7.47
2018-06-19T01:28:30.372Z,7.60
2018-06-19T01:30:58.614Z,7.30
2018-06-19T01:33:27.024Z,7.23
2018-06-19T01:35:55.690Z,7.20
2018-06-19T01:38:24.168Z,8.10
2018-06-19T01:40:52.672Z,7.70
2018-06-19T01:43:21.235Z,7.60
2018-06-19T01:45:49.921Z,7.93
2018-06-19T01:48:18.298Z,7.70
2018-06-19T01:50:46.876Z,8.07
2018-06-19T01:53:15.359Z,7.60
2018-06-19T01:55:43.943Z,8.10
2018-06-19T01:58:12.732Z,7.57
2018-06-19T02:00:41.111Z,8.10
2018-06-19T02:03:09.587Z,8.17
2018-06-19T02:05:38.169Z,7.67
2018-06-19T02:08:06.785Z,8.00
2018-06-19T02:10:35.334Z,8.13
2018-06-19T02:13:03.919Z,7.20
2018-06-19T02:15:32.523Z,7.90
2018-06-19T02:18:01.186Z,7.77
2018-06-19T02:20:29.770Z,7.97
2018-06-19T02:22:58.350Z,8.67
2018-06-19T02:25:26.831Z,8.83
2018-06-19T02:27:55.419Z,9.07
2018-06-19T02:30:24.000Z,8.73
2018-06-19T02:32:52.402Z,9.47
2018-06-19T02:35:20.794Z,9.77
2018-06-19T02:37:49.442Z,9.23
2018-06-19T02:40:17.919Z,8.97
2018-06-19T02:42:46.506Z,9.27
2018-06-19T02:45:15.088Z,9.23
2018-06-19T02:47:43.677Z,9.50
2018-06-19T02:50:12.152Z,8.50
2018-06-19T02:52:40.731Z,9.10
2018-06-19T02:55:09.314Z,8.80
2018-06-19T02:57:38.107Z,9.10
2018-06-19T03:00:06.592Z,9.33
2018-06-19T03:02:35.164Z,9.20
2018-06-19T03:05:03.649Z,8.90
2018-06-19T03:07:32.138Z,8.67
2018-06-19T03:10:00.608Z,9.80
2018-06-19T03:12:29.190Z,9.43
2018-06-19T03:14:58.056Z,9.63
2018-06-19T03:17:26.767Z,9.20
2018-06-19T03:19:55.395Z,9.63
2018-06-19T03:22:23.933Z,8.80
2018-06-19T03:24:52.315Z,9.03
2018-06-19T03:27:20.996Z,9.70
2018-06-19T03:29:49.476Z,8.97
2018-06-19T03:32:18.068Z,9.30
2018-06-19T03:34:46.644Z,9.67
2018-06-19T03:37:15.223Z,8.13
2018-06-19T03:39:43.709Z,8.70
2018-06-19T03:42:12.286Z,8.27
2018-06-19T03:44:40.876Z,8.13
2018-06-19T03:47:09.355Z,9.00
2018-06-19T03:49:37.832Z,9.57
2018-06-19T03:52:06.418Z,9.70
2018-06-19T03:54:34.728Z,10.97
2018-06-19T03:57:03.274Z,9.93
2018-06-19T03:59:31.970Z,10.03
2018-06-19T04:02:00.342Z,9.57
2018-06-19T04:04:28.762Z,9.43
2018-06-19T04:06:57.407Z,8.20
2018-06-19T04:09:26.044Z,8.10
2018-06-19T04:11:54.565Z,8.40
2018-06-19T04:14:23.048Z,8.50
2018-06-19T04:16:58.389Z,8.07
2018-06-19T04:19:26.975Z,8.83
2018-06-19T04:21:55.462Z,8.93
2018-06-19T04:24:23.976Z,8.43
2018-06-19T04:26:52.517Z,9.00
2018-06-19T04:29:21.304Z,8.97
2018-06-19T04:31:49.900Z,9.43
2018-06-19T04:34:18.597Z,8.67
2018-06-19T04:36:47.158Z,10.13
2018-06-19T04:39:15.741Z,8.83
2018-06-19T04:41:44.229Z,9.00
2018-06-19T04:44:12.801Z,9.40
2018-06-19T04:46:41.391Z,8.60
2018-06-19T04:49:09.904Z,8.83
2018-06-19T04:51:38.382Z,7.80
2018-06-19T04:54:06.940Z,7.63
2018-06-19T04:56:35.417Z,8.73
2018-06-19T04:59:03.895Z,7.50
2018-06-19T05:01:32.681Z,8.43
2018-06-19T05:04:31.485Z,8.40
2018-06-19T05:06:59.969Z,8.33
2018-06-19T05:09:28.544Z,7.90
2018-06-19T05:11:57.113Z,8.63
2018-06-19T05:14:25.616Z,7.53
2018-06-19T05:16:54.259Z,9.23
2018-06-19T05:19:22.975Z,7.80
2018-06-19T05:21:51.759Z,8.70
2018-06-19T05:24:20.442Z,8.10
2018-06-19T05:26:48.927Z,8.80
2018-06-19T05:29:17.318Z,8.40
2018-06-19T05:31:45.883Z,10.23
2018-06-19T05:34:14.463Z,9.30
2018-06-19T05:36:43.035Z,11.80
2018-06-19T05:39:11.754Z,9.90
2018-06-19T05:41:40.319Z,10.23
2018-06-19T05:44:09.054Z,9.33
2018-06-19T05:46:38.206Z,10.17
2018-06-19T05:49:06.788Z,9.47
2018-06-19T05:51:35.367Z,10.40
2018-06-19T05:54:03.780Z,10.60
2018-06-19T05:56:32.536Z,9.60
2018-06-19T05:59:01.035Z,9.27
2018-06-19T06:01:29.595Z,9.20
2018-06-19T06:03:58.180Z,9.17
2018-06-19T06:06:26.766Z,9.53
2018-06-19T06:08:55.450Z,8.70
2018-06-19T06:11:23.824Z,8.57
2018-06-19T06:13:52.399Z,8.63
2018-06-19T06:16:21.014Z,8.93
2018-06-19T06:18:49.411Z,9.47
2018-06-19T06:21:17.953Z,9.13
2018-06-19T06:23:46.471Z,8.77
2018-06-19T06:26:14.920Z,10.07
2018-06-19T06:28:43.495Z,9.10
2018-06-19T06:31:12.110Z,8.43
2018-06-19T06:33:40.522Z,9.70
2018-06-19T06:36:09.143Z,8.50
2018-06-19T06:38:37.599Z,9.90
2018-06-19T06:41:06.210Z,9.07
2018-06-19T06:43:34.790Z,9.13
2018-06-19T06:46:03.210Z,9.20
2018-06-19T06:48:31.756Z,9.50
2018-06-19T06:51:00.229Z,9.30
2018-06-19T06:53:28.819Z,9.50
2018-06-19T06:55:57.357Z,9.60
2018-06-19T06:58:26.083Z,9.47
2018-06-19T07:00:54.693Z,9.97
2018-06-19T07:03:23.761Z,9.27
2018-06-19T07:05:52.958Z,10.53
2018-06-19T07:08:21.402Z,9.90
2018-06-19T07:10:49.919Z,9.97
2018-06-19T07:13:18.621Z,9.37
2018-06-19T07:15:47.407Z,11.13
2018-06-19T07:18:15.978Z,11.03
2018-06-19T07:20:44.612Z,10.40
2018-06-19T07:23:13.243Z,10.20
2018-06-19T07:25:41.795Z,10.47
2018-06-19T07:28:10.411Z,9.60
2018-06-19T07:30:38.995Z,10.07
2018-06-19T07:33:07.573Z,10.77
2018-06-19T07:35:36.157Z,10.17
2018-06-19T07:38:04.915Z,10.63
2018-06-19T07:40:33.631Z,10.40
2018-06-19T07:43:04.079Z,11.07
2018-06-19T07:45:33.045Z,11.37
2018-06-19T07:48:01.941Z,10.93
2018-06-19T07:50:30.785Z,11.50
2018-06-19T07:52:59.263Z,11.27
2018-06-19T07:55:27.826Z,10.83
2018-06-19T07:57:56.373Z,11.30
2018-06-19T08:00:24.964Z,11.50
2018-06-19T08:02:53.539Z,12.33
2018-06-19T08:05:21.981Z,13.10
2018-06-19T08:07:50.499Z,13.30
2018-06-19T08:10:19.085Z,10.87
2018-06-19T08:12:48.196Z,10.53
2018-06-19T08:15:16.882Z,9.90
2018-06-19T08:17:45.303Z,9.37
2018-06-19T08:20:13.924Z,10.37
2018-06-19T08:22:42.742Z,9.83
2018-06-19T08:25:11.301Z,10.50
2018-06-19T08:27:39.879Z,10.63
2018-06-19T08:30:08.401Z,9.83
2018-06-19T08:32:37.047Z,10.00
2018-06-19T08:35:05.638Z,10.10
2018-06-19T08:37:34.143Z,10.03
2018-06-19T08:40:02.692Z,8.53
2018-06-19T08:42:31.179Z,8.60
2018-06-19T08:44:59.753Z,8.77
2018-06-19T08:47:28.130Z,9.07
2018-06-19T08:49:56.658Z,8.50
2018-06-19T08:52:25.302Z,9.03
2018-06-19T08:54:53.883Z,6.87
2018-06-19T08:57:22.380Z,6.80
2018-06-19T08:59:50.774Z,7.37
2018-06-19T09:02:19.633Z,7.07
2018-06-19T09:04:48.353Z,6.73
2018-06-19T09:07:16.900Z,6.30
2018-06-19T09:09:45.389Z,6.33
2018-06-19T09:12:13.967Z,6.63
2018-06-19T09:14:42.548Z,6.80
2018-06-19T09:17:11.030Z,6.70
2018-06-19T09:19:39.673Z,6.53
2018-06-19T09:22:08.294Z,7.13
2018-06-19T09:24:36.842Z,8.47
2018-06-19T09:27:05.594Z,7.33
2018-06-19T09:29:34.255Z,7.83
2018-06-19T09:32:02.836Z,7.60
2018-06-19T09:34:31.433Z,8.33
2018-06-19T09:37:00.102Z,8.20
2018-06-19T09:39:28.582Z,8.10
2018-06-19T09:41:57.166Z,8.70
2018-06-19T09:44:25.748Z,10.23
2018-06-19T09:46:54.346Z,8.43
2018-06-19T09:49:22.808Z,8.77
2018-06-19T09:51:51.291Z,8.37
2018-06-19T09:54:19.976Z,8.53
2018-06-19T09:56:48.565Z,8.80
2018-06-19T09:59:17.091Z,9.60
2018-06-19T10:01:46.034Z,9.90
2018-06-19T10:04:14.519Z,8.87
2018-06-19T10:06:43.102Z,10.43
2018-06-19T10:09:11.677Z,10.20
2018-06-19T10:11:40.157Z,9.87
2018-06-19T10:14:08.660Z,9.43
2018-06-19T10:16:37.143Z,8.83
2018-06-19T10:19:05.905Z,8.33
2018-06-19T10:21:34.496Z,7.83
2018-06-19T10:24:03.074Z,8.33
2018-06-19T10:26:31.659Z,8.50
2018-06-19T10:29:00.449Z,7.93
2018-06-19T10:31:29.134Z,7.30
2018-06-19T10:33:57.615Z,7.17
2018-06-19T10:36:26.196Z,8.00
2018-06-19T10:38:54.831Z,8.50
2018-06-19T10:41:23.377Z,7.70
2018-06-19T10:43:51.950Z,7.03
2018-06-19T10:46:20.448Z,6.70
2018-06-19T10:48:49.006Z,5.83
2018-06-19T10:51:17.598Z,6.27
2018-06-19T10:53:46.179Z,7.30
2018-06-19T10:56:14.858Z,7.13
2018-06-19T10:58:43.439Z,9.03
2018-06-19T11:01:11.856Z,9.93
2018-06-19T11:03:40.402Z,9.90
2018-06-19T11:06:08.939Z,8.57
2018-06-19T11:08:37.305Z,9.47
2018-06-19T11:11:05.843Z,9.60
2018-06-19T11:13:34.426Z,9.20
2018-06-19T11:16:02.885Z,9.20
2018-06-19T11:18:31.490Z,9.63
2018-06-19T11:20:59.702Z,10.00
2018-06-19T11:23:28.241Z,9.47
2018-06-19T11:25:56.827Z,10.13
2018-06-19T11:28:25.415Z,10.00
2018-06-19T11:30:54.030Z,9.70
2018-06-19T11:33:22.578Z,9.80
2018-06-19T11:35:51.160Z,9.57
2018-06-19T11:38:19.718Z,9.83
2018-06-19T11:40:48.324Z,8.77
2018-06-19T11:43:16.716Z,8.27
2018-06-19T11:45:45.121Z,8.80
2018-06-19T11:48:13.609Z,9.10
2018-06-19T11:50:42.159Z,9.07
2018-06-19T11:53:10.932Z,7.80
2018-06-19T11:55:39.825Z,7.97
2018-06-19T11:58:08.612Z,8.20
2018-06-19T12:00:37.295Z,8.10
2018-06-19T12:03:05.793Z,8.30
2018-06-19T12:05:34.463Z,8.23
2018-06-19T12:08:03.448Z,8.07
2018-06-19T12:10:32.244Z,8.43
2018-06-19T12:13:00.730Z,9.00
2018-06-19T12:15:29.308Z,8.70
2018-06-19T12:17:57.992Z,9.90
2018-06-19T12:20:26.575Z,10.03
2018-06-19T12:22:55.261Z,21.63
2018-06-19T12:25:23.659Z,8.90
2018-06-19T12:27:52.220Z,8.33
2018-06-19T12:30:20.804Z,8.10
2018-06-19T12:32:49.284Z,7.73
2018-06-19T12:35:17.898Z,7.83
2018-06-19T12:37:46.468Z,8.27
2018-06-19T12:40:14.953Z,7.53
2018-06-19T12:42:43.516Z,7.40
2018-06-19T12:45:11.889Z,7.60
2018-06-19T12:47:40.472Z,6.97
2018-06-19T12:50:23.494Z,7.60
2018-06-19T12:52:57.404Z,7.40
2018-06-19T12:55:31.218Z,7.40
2018-06-19T12:57:59.797Z,7.43
2018-06-19T13:00:28.344Z,6.23
2018-06-19T13:03:02.179Z,6.03
2018-06-19T13:05:35.984Z,6.70
2018-06-19T13:08:04.580Z,5.77
2018-06-19T13:10:32.988Z,7.63
2018-06-19T13:13:15.871Z,6.57
2018-06-19T13:15:44.548Z,5.80
2018-06-19T13:18:18.376Z,6.30
2018-06-19T13:20:48.255Z,7.30
2018-06-19T13:23:17.085Z,6.00
2018-06-19T13:25:45.993Z,6.10
2018-06-19T13:28:14.456Z,6.50
2018-06-19T13:30:48.171Z,5.87
2018-06-19T13:33:16.818Z,6.10
2018-06-19T13:35:45.149Z,6.43
2018-06-19T13:38:13.573Z,5.80
2018-06-19T13:40:56.492Z,6.53
2018-06-19T13:43:30.123Z,6.17
2018-06-19T13:45:58.673Z,6.00
2018-06-19T13:48:27.268Z,6.87
2018-06-19T13:50:55.944Z,5.63
2018-06-19T13:53:24.524Z,5.90
2018-06-19T13:56:07.857Z,5.73
2018-06-19T13:58:37.182Z,5.10
2018-06-19T14:01:05.957Z,6.07
2018-06-19T14:03:34.525Z,5.07
2018-06-19T14:06:03.107Z,4.93
2018-06-19T14:08:36.673Z,5.40
2018-06-19T14:11:10.615Z,5.20
2018-06-19T14:13:39.127Z,5.23
2018-06-19T14:16:07.679Z,5.63
2018-06-19T14:18:36.069Z,4.57
2018-06-19T14:21:04.672Z,4.77
2018-06-19T14:23:33.120Z,4.47
2018-06-19T14:26:01.704Z,4.63
2018-06-19T14:28:30.289Z,3.90
2018-06-19T14:30:58.670Z,4.23
2018-06-19T14:33:27.253Z,4.07
2018-06-19T14:35:55.832Z,3.97
2018-06-19T14:38:24.213Z,4.30
2018-06-19T14:40:52.997Z,3.83
2018-06-19T14:43:21.585Z,3.90
2018-06-19T14:45:51.186Z,3.77
2018-06-19T14:48:19.772Z,4.17
2018-06-19T14:50:48.200Z,3.90
2018-06-19T14:53:16.633Z,4.20
2018-06-19T14:55:45.215Z,4.20
2018-06-19T14:58:13.692Z,4.50
2018-06-19T15:00:42.277Z,4.70
2018-06-19T15:03:10.766Z,5.00
2018-06-19T15:05:39.235Z,5.07
2018-06-19T15:08:07.752Z,4.77
2018-06-19T15:10:36.348Z,4.93
2018-06-19T15:13:04.907Z,4.40
2018-06-19T15:15:33.366Z,4.80
2018-06-19T15:18:02.157Z,4.40
2018-06-19T15:20:30.632Z,4.40
2018-06-19T15:22:59.112Z,4.40
2018-06-19T15:25:27.600Z,4.07
2018-06-19T15:27:56.084Z,3.50
2018-06-19T15:30:24.654Z,3.73
2018-06-19T15:32:53.134Z,3.80
2018-06-19T15:35:21.537Z,3.20
2018-06-19T15:37:50.096Z,3.93
2018-06-19T15:40:18.782Z,4.27
2018-06-19T15:42:47.263Z,3.97
2018-06-19T15:45:15.850Z,3.40
2018-06-19T15:47:44.431Z,4.00
2018-06-19T15:50:12.827Z,3.70
2018-06-19T15:52:41.397Z,3.87
2018-06-19T15:55:10.075Z,4.00
2018-06-19T15:57:38.340Z,3.47
2018-06-19T16:00:06.836Z,3.97
2018-06-19T16:02:35.218Z,3.10
2018-06-19T16:05:03.695Z,4.47
2018-06-19T16:07:32.173Z,4.63
2018-06-19T16:10:00.548Z,3.90
2018-06-19T16:12:29.132Z,3.57
2018-06-19T16:14:57.731Z,4.10
2018-06-19T16:17:26.407Z,4.30
2018-06-19T16:19:54.984Z,3.70
2018-06-19T16:22:23.463Z,4.20
2018-06-19T16:24:51.944Z,7.57
2018-06-19T16:27:20.423Z,4.50
2018-06-19T16:29:48.905Z,5.60
2018-06-19T16:32:17.389Z,5.20
2018-06-19T16:34:45.869Z,5.53
2018-06-19T16:37:14.347Z,6.17
2018-06-19T16:39:42.930Z,5.90
2018-06-19T16:42:11.417Z,5.93
2018-06-19T16:44:39.997Z,6.00
2018-06-19T16:47:08.580Z,6.00
2018-06-19T16:49:37.377Z,5.63
2018-06-19T16:52:06.151Z,5.80
2018-06-19T16:54:34.735Z,6.23
2018-06-19T16:57:03.085Z,5.33
2018-06-19T16:59:31.595Z,6.13
2018-06-19T17:02:00.070Z,4.73
2018-06-19T17:04:28.666Z,6.13
2018-06-19T17:06:57.341Z,5.73
2018-06-19T17:09:25.715Z,5.40
2018-06-19T17:11:54.204Z,5.30
2018-06-19T17:14:22.787Z,4.93
2018-06-19T17:16:51.269Z,5.07
2018-06-19T17:19:19.851Z,10.00
2018-06-19T17:21:48.327Z,5.40
2018-06-19T17:24:16.811Z,6.03
2018-06-19T17:26:45.498Z,5.70
2018-06-19T17:29:13.768Z,5.43
2018-06-19T17:31:42.355Z,6.17
2018-06-19T17:34:10.835Z,6.87
2018-06-19T17:36:39.091Z,5.97
2018-06-19T17:39:08.716Z,6.70
2018-06-19T17:41:37.707Z,6.03
2018-06-19T17:44:06.293Z,6.77
2018-06-19T17:46:35.082Z,7.80
2018-06-19T17:49:03.554Z,6.13
2018-06-19T17:51:32.142Z,6.97
2018-06-19T17:54:00.480Z,6.67
2018-06-19T17:56:29.001Z,6.27
2018-06-19T17:58:57.389Z,6.70
2018-06-19T18:01:25.968Z,6.13
2018-06-19T18:03:54.648Z,6.73
2018-06-19T18:06:23.039Z,6.73
2018-06-19T18:08:51.432Z,6.50
2018-06-19T18:11:19.986Z,6.60
2018-06-19T18:13:48.596Z,6.70
2018-06-19T18:16:17.051Z,6.63
2018-06-19T18:18:45.681Z,6.70
2018-06-19T18:21:14.216Z,7.30
2018-06-19T18:23:42.755Z,6.87
2018-06-19T18:26:11.070Z,8.10
2018-06-19T18:28:40.174Z,7.50
2018-06-19T18:31:08.649Z,6.80
2018-06-19T18:33:37.658Z,7.23
2018-06-19T18:36:06.431Z,7.77
2018-06-19T18:38:35.069Z,7.47
2018-06-19T18:41:03.655Z,8.63
2018-06-19T18:43:32.182Z,8.47
2018-06-19T18:46:01.909Z,8.40
2018-06-19T18:48:30.352Z,7.63
2018-06-19T18:50:59.007Z,7.60
2018-06-19T18:53:27.740Z,6.33
2018-06-19T18:55:56.651Z,6.30
2018-06-19T18:58:25.531Z,6.43
2018-06-19T19:00:54.002Z,7.07
2018-06-19T19:03:22.481Z,9.17
2018-06-19T19:05:50.862Z,8.93
2018-06-19T19:08:21.388Z,6.70
2018-06-19T19:10:51.242Z,6.70
2018-06-19T19:13:20.815Z,6.53
2018-06-19T19:15:54.717Z,6.23
2018-06-19T19:18:28.725Z,10.70
2018-06-19T19:20:58.186Z,6.60
2018-06-19T19:23:26.921Z,6.60
2018-06-19T19:25:55.500Z,6.67
2018-06-19T19:28:29.191Z,5.77
2018-06-19T19:30:57.690Z,6.00
2018-06-19T19:33:26.211Z,5.47
2018-06-19T19:35:54.749Z,5.57
2018-06-19T19:38:28.654Z,5.37
2018-06-19T19:40:57.209Z,5.77
2018-06-19T19:43:26.371Z,5.90
2018-06-19T19:45:55.440Z,6.00
2018-06-19T19:48:29.542Z,6.60
2018-06-19T19:50:58.258Z,6.10
2018-06-19T19:53:27.153Z,5.60
2018-06-19T19:56:00.870Z,5.70
2018-06-19T19:58:35.130Z,6.03
2018-06-19T20:01:03.740Z,5.70
2018-06-19T20:03:34.268Z,7.07
2018-06-19T20:06:03.361Z,6.70
2018-06-19T20:08:32.435Z,6.13
2018-06-19T20:11:01.301Z,7.57
2018-06-19T20:13:30.790Z,6.70
2018-06-19T20:16:00.016Z,7.20
2018-06-19T20:18:28.657Z,6.77
2018-06-19T20:20:57.522Z,6.70
2018-06-19T20:23:26.294Z,7.10
2018-06-19T20:25:54.775Z,6.03
2018-06-19T20:28:23.455Z,8.17
2018-06-19T20:30:52.246Z,9.07
2018-06-19T20:33:20.732Z,7.90
2018-06-19T20:35:55.758Z,7.17
2018-06-19T20:38:24.140Z,7.00
2018-06-19T20:40:52.720Z,6.07
2018-06-19T20:43:21.099Z,6.50
2018-06-19T20:45:49.681Z,6.07
2018-06-19T20:48:18.204Z,6.30
2018-06-19T20:50:46.873Z,5.93
2018-06-19T20:53:15.327Z,7.00
2018-06-19T20:55:43.654Z,8.93
2018-06-19T20:58:12.194Z,7.03
2018-06-19T21:00:40.768Z,6.50
2018-06-19T21:03:09.353Z,6.23
2018-06-19T21:05:37.836Z,6.93
2018-06-19T21:08:06.323Z,6.87
2018-06-19T21:10:34.903Z,6.27
2018-06-19T21:13:03.311Z,6.70
2018-06-19T21:15:31.959Z,6.30
2018-06-19T21:18:00.644Z,6.63
2018-06-19T21:20:29.146Z,7.50
2018-06-19T21:22:57.644Z,7.47
2018-06-19T21:25:26.090Z,7.20
2018-06-19T21:27:54.874Z,7.10
2018-06-19T21:30:23.354Z,7.60
2018-06-19T21:32:51.936Z,8.00
2018-06-19T21:35:20.526Z,14.17
2018-06-19T21:37:49.104Z,9.07
2018-06-19T21:40:18.321Z,8.70
2018-06-19T21:42:46.882Z,7.83
2018-06-19T21:45:15.363Z,7.53
2018-06-19T21:47:43.846Z,6.93
2018-06-19T21:50:12.440Z,7.53
2018-06-19T21:52:41.010Z,6.47
2018-06-19T21:55:09.491Z,7.13
2018-06-19T21:57:38.175Z,7.23
2018-06-19T22:00:06.758Z,7.43
2018-06-19T22:02:35.186Z,8.70
2018-06-19T22:05:05.096Z,8.93
2018-06-19T22:07:33.952Z,8.10
2018-06-19T22:10:02.424Z,8.30
2018-06-19T22:12:31.110Z,8.30
2018-06-19T22:14:59.693Z,9.10
2018-06-19T22:17:28.269Z,9.27
2018-06-19T22:19:56.855Z,8.90
2018-06-19T22:22:25.541Z,9.67
2018-06-19T22:24:54.025Z,9.77
2018-06-19T22:27:22.613Z,9.43
2018-06-19T22:29:51.188Z,9.13
2018-06-19T22:32:19.772Z,9.40
2018-06-19T22:34:48.249Z,9.10
2018-06-19T22:37:16.538Z,9.23
2018-06-19T22:39:45.114Z,8.57
2018-06-19T22:42:13.592Z,8.80
2018-06-19T22:44:41.969Z,8.53
2018-06-19T22:47:10.387Z,8.50
2018-06-19T22:49:38.929Z,9.33
2018-06-19T22:52:07.721Z,8.03
2018-06-19T22:54:36.196Z,13.23
2018-06-19T22:57:04.781Z,8.50
2018-06-19T22:59:33.364Z,8.93
2018-06-19T23:02:01.743Z,8.60
2018-06-19T23:04:30.350Z,8.73
2018-06-19T23:06:59.218Z,9.33
2018-06-19T23:09:27.698Z,7.87
2018-06-19T23:11:56.176Z,8.03
2018-06-19T23:14:24.762Z,7.13
2018-06-19T23:16:53.342Z,7.30
2018-06-19T23:19:21.930Z,7.00
2018-06-19T23:21:50.614Z,7.17
2018-06-19T23:24:19.100Z,7.47
2018-06-19T23:26:47.489Z,7.00
2018-06-19T23:29:15.953Z,6.87
2018-06-19T23:31:44.741Z,7.20
2018-06-19T23:34:13.427Z,7.07
2018-06-19T23:36:42.055Z,8.07
2018-06-19T23:39:10.795Z,8.50
2018-06-19T23:41:39.379Z,7.93
2018-06-19T23:44:07.862Z,8.00
2018-06-19T23:46:36.235Z,8.37
2018-06-19T23:49:04.630Z,8.03
2018-06-19T23:51:33.111Z,8.27
2018-06-19T23:54:01.987Z,7.93
2018-06-19T23:56:30.511Z,8.23
2018-06-19T23:58:58.972Z,7.67
